Time;durP1;ratioP1;P1;durP2;ratioP2;P2;SDS_P1;SDS_P2;PMS_P1;PMS_P2;Temp;Humidity;BMP_temperature;BMP_pressure;BME280_temperature;BME280_humidity;BME280_pressure;Samples;Min_cycle;Max_cycle;Signal;HPM_P1;HPM_P2
2023/08/22 00:01:41;;;;;;;;;;;;;;;25.66;53.10;94959.25;4161259;28;19931;-79
2023/08/22 00:03:43;;;;;;;;;;;;;;;25.66;53.31;94963.78;4166789;28;19924;-78
2023/08/22 00:05:45;;;;;;;;;;;;;;;25.63;53.18;94965.09;4166720;28;20348;-77
2023/08/22 00:07:46;;;;;;;;;;;;;;;25.59;53.00;94963.94;4169623;28;19960;-77
2023/08/22 00:09:48;;;;;;;;;;;;;;;25.56;53.05;94972.50;4160578;28;19925;-78
2023/08/22 00:11:51;;;;;;;;;;;;;;;25.56;53.00;94967.13;4171006;28;20249;-77
2023/08/22 00:13:52;;;;;;;;;;;;;;;25.57;53.19;94963.38;4163090;28;19936;-77
2023/08/22 00:15:58;;;;;;;;;;;;;;;25.59;52.93;94966.63;4161855;28;19936;-79
2023/08/22 00:18:00;;;;;;;;;;;;;;;25.56;53.11;94966.34;4179149;28;19927;-80
2023/08/22 00:20:04;;;;;;;;;;;;;;;25.56;52.92;94969.81;4162415;28;19964;-78
2023/08/22 00:22:06;;;;;;;;;;;;;;;25.56;52.79;94966.34;4178840;28;20395;-78
2023/08/22 00:24:08;;;;;;;;;;;;;;;25.50;52.85;94963.56;4173271;28;20011;-78
2023/08/22 00:26:09;;;;;;;;;;;;;;;25.47;53.08;94969.44;4175432;28;19990;-79
2023/08/22 00:28:11;;;;;;;;;;;;;;;25.27;53.22;94964.53;4161517;28;19975;-75
2023/08/22 00:30:13;;;;;;;;;;;;;;;25.13;53.59;94971.28;4181455;28;19971;-76
2023/08/22 00:32:14;;;;;;;;;;;;;;;24.89;53.92;94962.59;4173048;28;20020;-77
2023/08/22 00:34:16;;;;;;;;;;;;;;;24.80;54.32;94956.81;4170979;28;20284;-77
2023/08/22 00:36:17;;;;;;;;;;;;;;;24.84;54.39;94949.88;4183697;28;20352;-80
2023/08/22 00:38:19;;;;;;;;;;;;;;;24.83;54.22;94956.31;4180069;28;20343;-78
2023/08/22 00:40:21;;;;;;;;;;;;;;;24.79;54.60;94946.31;4182800;28;19963;-80
2023/08/22 00:42:23;;;;;;;;;;;;;;;24.76;54.58;94949.47;4189252;28;20340;-77
2023/08/22 00:44:24;;;;;;;;;;;;;;;24.76;54.78;94949.47;4197473;28;19930;-77
2023/08/22 00:46:26;;;;;;;;;;;;;;;24.79;54.67;94957.03;4181907;28;19928;-75
2023/08/22 00:48:28;;;;;;;;;;;;;;;24.85;54.44;94954.19;4174792;28;19980;-77
2023/08/22 00:50:30;;;;;;;;;;;;;;;24.90;54.40;94959.63;4174609;28;19968;-75
2023/08/22 00:52:31;;;;;;;;;;;;;;;24.96;54.41;94962.41;4189108;28;19924;-79
2023/08/22 00:54:33;;;;;;;;;;;;;;;25.01;54.19;94963.31;4203402;28;19928;-76
2023/08/22 00:56:34;;;;;;;;;;;;;;;25.09;54.04;94962.91;4168382;28;19969;-76
2023/08/22 00:58:37;;;;;;;;;;;;;;;25.14;53.92;94965.69;4168471;28;20015;-75
2023/08/22 01:00:38;;;;;;;;;;;;;;;25.21;53.82;94970.91;4154187;28;19928;-76
2023/08/22 01:02:40;;;;;;;;;;;;;;;25.23;53.82;94958.06;4187234;28;19932;-78
2023/08/22 01:04:42;;;;;;;;;;;;;;;25.25;53.69;94950.59;4195061;28;20396;-78
2023/08/22 01:06:56;;;;;;;;;;;;;;;25.27;53.45;94953.81;4191652;28;19955;-78
2023/08/22 01:09:04;;;;;;;;;;;;;;;25.29;53.47;94956.28;4159183;28;19921;-76
2023/08/22 01:11:08;;;;;;;;;;;;;;;25.28;53.54;94960.81;4170053;28;19925;-77
2023/08/22 01:13:23;;;;;;;;;;;;;;;25.28;53.57;94960.81;4190884;28;19927;-77
2023/08/22 01:15:25;;;;;;;;;;;;;;;25.26;53.54;94954.91;4167375;28;19944;-77
2023/08/22 01:17:27;;;;;;;;;;;;;;;25.28;53.67;94960.03;4161245;28;19952;-78
2023/08/22 01:19:30;;;;;;;;;;;;;;;25.27;53.82;94959.19;4160642;28;19921;-78
2023/08/22 01:21:35;;;;;;;;;;;;;;;25.26;53.88;94954.91;4178783;28;20411;-76
2023/08/22 01:23:39;;;;;;;;;;;;;;;25.22;54.07;94961.78;4161656;28;19948;-78
2023/08/22 01:25:40;;;;;;;;;;;;;;;25.20;53.84;94966.59;4173819;28;19947;-78
2023/08/22 01:28:01;;;;;;;;;;;;;;;25.19;53.84;94967.63;4155297;28;19968;-78
2023/08/22 01:30:06;;;;;;;;;;;;;;;25.05;54.28;94967.13;4162181;28;19972;-78
2023/08/22 01:32:11;;;;;;;;;;;;;;;25.01;54.55;94962.50;4158329;28;19961;-77
2023/08/22 01:34:17;;;;;;;;;;;;;;;24.99;54.46;94964.59;4161113;28;19964;-78
2023/08/22 01:36:20;;;;;;;;;;;;;;;24.90;54.51;94956.16;4152272;28;19931;-77
2023/08/22 01:38:22;;;;;;;;;;;;;;;24.82;54.37;94957.34;4168653;28;20016;-77
2023/08/22 01:40:24;;;;;;;;;;;;;;;24.76;54.57;94958.34;4177418;28;19925;-79
2023/08/22 01:42:25;;;;;;;;;;;;;;;24.72;54.85;94959.88;4176888;28;19928;-78
2023/08/22 01:44:28;;;;;;;;;;;;;;;24.61;54.84;94961.56;4159084;28;20026;-76
2023/08/22 01:46:30;;;;;;;;;;;;;;;24.44;55.34;94958.81;4155387;28;19950;-75
2023/08/22 01:48:32;;;;;;;;;;;;;;;24.37;55.43;94955.47;4166472;28;20257;-78
2023/08/22 01:50:34;;;;;;;;;;;;;;;24.30;55.47;94960.13;4147755;28;20003;-78
2023/08/22 01:52:35;;;;;;;;;;;;;;;24.32;56.02;94966.06;4153613;28;19997;-77
2023/08/22 01:54:38;;;;;;;;;;;;;;;24.38;56.05;94956.28;4163931;28;20272;-79
2023/08/22 01:56:40;;;;;;;;;;;;;;;24.39;56.08;94961.38;4178186;28;20375;-79
2023/08/22 01:58:41;;;;;;;;;;;;;;;24.48;55.78;94961.81;4161392;28;19947;-77
2023/08/22 02:00:43;;;;;;;;;;;;;;;24.53;55.65;94965.44;4176503;28;20003;-77
2023/08/22 02:02:44;;;;;;;;;;;;;;;24.58;55.50;94961.22;4171941;28;19925;-75
2023/08/22 02:04:46;;;;;;;;;;;;;;;24.58;55.55;94959.34;4151942;28;19928;-78
2023/08/22 02:06:48;;;;;;;;;;;;;;;24.64;55.63;94961.06;4143492;28;20021;-78
2023/08/22 02:08:50;;;;;;;;;;;;;;;24.62;55.77;94957.00;4173437;28;20019;-78
2023/08/22 02:10:51;;;;;;;;;;;;;;;24.63;55.66;94956.78;4178382;28;19921;-75
2023/08/22 02:12:53;;;;;;;;;;;;;;;24.67;55.89;94959.75;4158836;28;20008;-79
2023/08/22 02:14:55;;;;;;;;;;;;;;;24.68;55.54;94956.84;4176050;28;20019;-76
2023/08/22 02:16:59;;;;;;;;;;;;;;;24.71;55.83;94955.56;4169594;28;19936;-77
2023/08/22 02:19:01;;;;;;;;;;;;;;;24.70;55.92;94962.78;4166799;28;20259;-77
2023/08/22 02:21:02;;;;;;;;;;;;;;;24.68;55.78;94956.03;4177691;28;19960;-79
2023/08/22 02:23:04;;;;;;;;;;;;;;;24.68;55.76;94956.84;4151909;28;19921;-81
2023/08/22 02:25:06;;;;;;;;;;;;;;;24.58;56.17;94956.66;4167574;28;19968;-78
2023/08/22 02:27:08;;;;;;;;;;;;;;;24.47;56.39;94963.66;4175430;28;20210;-78
2023/08/22 02:29:10;;;;;;;;;;;;;;;24.27;57.15;94960.63;4172030;28;20015;-77
2023/08/22 02:31:11;;;;;;;;;;;;;;;24.13;57.58;94957.38;4176837;28;19975;-77
2023/08/22 02:33:14;;;;;;;;;;;;;;;23.79;58.63;94959.94;4175131;28;19971;-77
2023/08/22 02:35:16;;;;;;;;;;;;;;;23.47;59.24;94960.28;4145267;28;19949;-78
2023/08/22 02:37:18;;;;;;;;;;;;;;;23.23;60.21;94958.63;4164939;28;19925;-75
2023/08/22 02:39:20;;;;;;;;;;;;;;;23.27;60.18;94957.13;4182198;28;19921;-77
2023/08/22 02:41:22;;;;;;;;;;;;;;;23.41;59.99;94953.19;4177077;28;19991;-77
2023/08/22 02:43:26;;;;;;;;;;;;;;;23.60;59.33;94956.53;4177738;28;20000;-78
2023/08/22 02:45:27;;;;;;;;;;;;;;;23.73;58.67;94957.34;4164485;28;19921;-77
2023/08/22 02:47:29;;;;;;;;;;;;;;;23.79;58.63;94975.13;4176401;28;19927;-79
2023/08/22 02:49:31;;;;;;;;;;;;;;;23.73;58.79;94970.72;4172213;28;19951;-78
2023/08/22 02:51:33;;;;;;;;;;;;;;;23.56;59.29;94982.13;4163215;28;20023;-78
2023/08/22 02:53:34;;;;;;;;;;;;;;;23.48;59.43;94977.91;4176481;28;19924;-83
2023/08/22 02:55:37;;;;;;;;;;;;;;;23.45;59.51;94974.91;4178111;28;20296;-78
2023/08/22 02:57:38;;;;;;;;;;;;;;;23.47;59.72;94976.31;4189510;28;19932;-78
2023/08/22 02:59:40;;;;;;;;;;;;;;;23.54;59.62;94973.50;4171975;28;19953;-77
2023/08/22 03:01:42;;;;;;;;;;;;;;;23.62;59.56;94969.69;4144996;28;19929;-78
2023/08/22 03:03:49;;;;;;;;;;;;;;;23.66;59.36;94971.66;4166086;28;20016;-78
2023/08/22 03:05:51;;;;;;;;;;;;;;;23.75;59.06;94969.44;4167966;28;19928;-80
2023/08/22 03:07:52;;;;;;;;;;;;;;;23.83;58.55;94963.75;4171968;28;19952;-78
2023/08/22 03:09:54;;;;;;;;;;;;;;;23.93;58.37;94976.53;4164493;28;20253;-76
2023/08/22 03:11:55;;;;;;;;;;;;;;;24.01;58.19;94968.13;4174867;28;19963;-80
2023/08/22 03:13:57;;;;;;;;;;;;;;;24.06;57.89;94973.59;4148037;28;19935;-77
2023/08/22 03:16:00;;;;;;;;;;;;;;;24.12;57.71;94980.66;4158202;28;19921;-76
2023/08/22 03:18:02;;;;;;;;;;;;;;;24.15;57.87;94982.06;4170690;28;19927;-79
2023/08/22 03:20:05;;;;;;;;;;;;;;;24.16;57.50;94980.22;4177924;28;19927;-79
2023/08/22 03:22:06;;;;;;;;;;;;;;;24.19;57.45;94980.53;4175234;28;20011;-75
2023/08/22 03:24:08;;;;;;;;;;;;;;;24.21;57.47;94982.97;4177853;28;19925;-77
2023/08/22 03:26:13;;;;;;;;;;;;;;;24.19;57.49;94979.72;4150898;28;20529;-77
2023/08/22 03:28:17;;;;;;;;;;;;;;;24.19;57.52;94985.06;4165422;28;19920;-78
2023/08/22 03:30:19;;;;;;;;;;;;;;;24.21;57.12;94985.66;4174632;28;20484;-75
2023/08/22 03:32:21;;;;;;;;;;;;;;;24.25;57.16;94992.16;4162381;28;20027;-77
2023/08/22 03:34:23;;;;;;;;;;;;;;;24.24;57.09;94986.00;4169207;28;19963;-78
2023/08/22 03:36:25;;;;;;;;;;;;;;;24.24;57.39;94985.16;4165935;28;19925;-77
2023/08/22 03:38:26;;;;;;;;;;;;;;;24.18;57.75;94991.47;4162331;28;20276;-78
2023/08/22 03:40:28;;;;;;;;;;;;;;;24.03;57.89;94987.44;4174745;28;19921;-77
2023/08/22 03:42:30;;;;;;;;;;;;;;;23.53;59.40;94987.91;4173133;28;19921;-77
2023/08/22 03:44:31;;;;;;;;;;;;;;;23.19;60.40;94990.34;4176629;28;20019;-77
2023/08/22 03:46:33;;;;;;;;;;;;;;;22.79;61.75;94993.59;4171653;28;19924;-77
2023/08/22 03:48:39;;;;;;;;;;;;;;;22.62;62.39;94997.97;4174907;28;19932;-79
2023/08/22 03:50:41;;;;;;;;;;;;;;;22.61;62.41;94991.81;4181443;28;19940;-75
2023/08/22 03:52:43;;;;;;;;;;;;;;;22.71;62.10;94991.25;4175848;28;20043;-77
2023/08/22 03:54:44;;;;;;;;;;;;;;;22.88;61.83;94983.41;4174357;28;19975;-78
2023/08/22 03:56:46;;;;;;;;;;;;;;;23.13;60.80;94993.94;4174026;28;19941;-78
2023/08/22 03:58:48;;;;;;;;;;;;;;;23.29;60.52;94984.44;4170258;28;19963;-78
2023/08/22 04:00:55;;;;;;;;;;;;;;;23.36;60.23;94989.66;4171239;28;19925;-78
2023/08/22 04:02:57;;;;;;;;;;;;;;;23.07;60.82;94994.88;4177126;28;19921;-77
2023/08/22 04:04:58;;;;;;;;;;;;;;;22.64;62.14;94993.22;4146532;28;19959;-79
2023/08/22 04:07:00;;;;;;;;;;;;;;;22.51;62.60;94988.88;4151363;28;20404;-79
2023/08/22 04:09:01;;;;;;;;;;;;;;;22.42;63.14;94993.72;4153427;28;19921;-80
2023/08/22 04:11:03;;;;;;;;;;;;;;;22.59;62.88;94998.44;4163767;28;20004;-79
2023/08/22 04:13:05;;;;;;;;;;;;;;;22.57;62.95;94997.84;4172623;28;20033;-77
2023/08/22 04:15:07;;;;;;;;;;;;;;;22.65;62.77;94997.50;4168781;28;19929;-80
2023/08/22 04:17:09;;;;;;;;;;;;;;;22.72;62.44;95003.56;4177128;28;20011;-78
2023/08/22 04:19:10;;;;;;;;;;;;;;;22.87;62.05;94990.59;4176106;28;20075;-77
2023/08/22 04:21:12;;;;;;;;;;;;;;;23.06;61.25;94990.56;4165447;28;20055;-79
2023/08/22 04:23:14;;;;;;;;;;;;;;;23.25;60.58;94991.28;4178099;28;19940;-80
2023/08/22 04:25:15;;;;;;;;;;;;;;;23.43;59.93;94990.38;4177810;28;19971;-81
2023/08/22 04:27:18;;;;;;;;;;;;;;;23.60;59.53;94996.66;4175781;28;20008;-78
2023/08/22 04:29:20;;;;;;;;;;;;;;;23.75;59.06;94998.03;4169821;28;19979;-81
2023/08/22 04:31:22;;;;;;;;;;;;;;;23.84;58.67;95000.16;4180005;28;19924;-78
2023/08/22 04:33:23;;;;;;;;;;;;;;;23.93;58.41;95003.28;4173109;28;19920;-79
2023/08/22 04:35:25;;;;;;;;;;;;;;;23.97;58.59;95001.75;4169266;28;20036;-81
2023/08/22 04:37:27;;;;;;;;;;;;;;;24.05;58.34;95001.41;4167325;28;19921;-78
2023/08/22 04:39:28;;;;;;;;;;;;;;;24.11;58.14;95013.84;4178124;28;19921;-79
2023/08/22 04:41:30;;;;;;;;;;;;;;;24.18;58.04;95020.91;4162611;28;19990;-82
2023/08/22 04:43:31;;;;;;;;;;;;;;;24.24;57.92;95019.97;4173506;28;19921;-78
2023/08/22 04:45:33;;;;;;;;;;;;;;;24.14;58.15;95025.94;4170458;28;20341;-78
2023/08/22 04:47:35;;;;;;;;;;;;;;;23.89;59.16;95018.97;4172863;28;19945;-81
2023/08/22 04:49:37;;;;;;;;;;;;;;;23.82;59.58;95028.19;4179012;28;20400;-79
2023/08/22 04:51:38;;;;;;;;;;;;;;;23.82;59.52;95028.19;4172862;28;20050;-78
2023/08/22 04:53:40;;;;;;;;;;;;;;;23.70;59.60;95030.81;4169966;28;20444;-79
2023/08/22 04:55:42;;;;;;;;;;;;;;;23.55;60.20;95025.94;4176403;28;20015;-79
2023/08/22 04:57:43;;;;;;;;;;;;;;;23.39;60.84;95034.66;4157753;28;19980;-79
2023/08/22 04:59:45;;;;;;;;;;;;;;;23.29;61.36;95029.88;4153314;28;20028;-78
2023/08/22 05:01:46;;;;;;;;;;;;;;;23.43;60.85;95031.28;4175836;28;20007;-77
2023/08/22 05:03:50;;;;;;;;;;;;;;;23.18;61.09;95038.69;4173189;28;19921;-79
2023/08/22 05:05:52;;;;;;;;;;;;;;;22.95;62.38;95036.72;4150976;28;20023;-78
2023/08/22 05:07:54;;;;;;;;;;;;;;;22.90;62.36;95040.09;4175004;28;19940;-78
2023/08/22 05:09:55;;;;;;;;;;;;;;;23.19;62.07;95038.47;4185038;28;19967;-80
2023/08/22 05:11:57;;;;;;;;;;;;;;;23.31;61.20;95039.28;4173746;28;19964;-81
2023/08/22 05:13:58;;;;;;;;;;;;;;;23.46;60.61;95033.50;4178390;28;19921;-78
2023/08/22 05:16:00;;;;;;;;;;;;;;;23.62;60.70;95033.88;4176921;28;19951;-78
2023/08/22 05:18:02;;;;;;;;;;;;;;;23.86;59.74;95029.34;4180244;28;19979;-79
2023/08/22 05:20:06;;;;;;;;;;;;;;;24.08;59.03;95033.03;4167637;28;20019;-79
2023/08/22 05:22:08;;;;;;;;;;;;;;;24.27;58.26;95024.88;4159449;28;19922;-79
2023/08/22 05:24:10;;;;;;;;;;;;;;;24.47;58.06;95021.78;4179212;28;19927;-78
2023/08/22 05:26:12;;;;;;;;;;;;;;;24.57;57.71;95029.25;4161665;28;19921;-78
2023/08/22 05:28:14;;;;;;;;;;;;;;;24.65;57.31;95035.03;4172084;28;20195;-80
2023/08/22 05:30:16;;;;;;;;;;;;;;;24.75;57.03;95026.34;4179002;28;19924;-78
2023/08/22 05:32:17;;;;;;;;;;;;;;;24.86;56.73;95022.00;4172681;28;19967;-79
2023/08/22 05:34:19;;;;;;;;;;;;;;;24.83;56.53;95025.16;4175419;28;19921;-80
2023/08/22 05:36:20;;;;;;;;;;;;;;;24.73;56.87;95028.47;4177753;28;20004;-80
2023/08/22 05:38:23;;;;;;;;;;;;;;;24.21;58.29;95028.47;4158683;28;19976;-81
2023/08/22 05:40:25;;;;;;;;;;;;;;;24.06;58.94;95029.78;4176432;28;19928;-79
2023/08/22 05:42:28;;;;;;;;;;;;;;;23.99;59.10;95039.00;4173807;28;20345;-78
2023/08/22 05:44:32;;;;;;;;;;;;;;;24.03;58.80;95035.63;4165327;28;19999;-78
2023/08/22 05:46:33;;;;;;;;;;;;;;;24.19;58.83;95027.91;4175547;28;20254;-78
2023/08/22 05:48:35;;;;;;;;;;;;;;;24.38;58.26;95032.03;4169360;28;19924;-77
2023/08/22 05:50:37;;;;;;;;;;;;;;;24.58;57.60;95025.50;4166467;28;20639;-79
2023/08/22 05:52:38;;;;;;;;;;;;;;;24.82;56.87;95024.34;4166722;28;19957;-77
2023/08/22 05:54:41;;;;;;;;;;;;;;;24.92;56.57;95027.19;4179761;28;19967;-80
2023/08/22 05:56:43;;;;;;;;;;;;;;;25.04;56.61;95023.66;4168295;28;19921;-78
2023/08/22 05:58:47;;;;;;;;;;;;;;;25.19;56.14;95028.44;4148909;28;19921;-80
2023/08/22 06:00:49;;;;;;;;;;;;;;;25.33;55.62;95019.88;4171485;28;20372;-78
2023/08/22 06:02:51;;;;;;;;;;;;;;;25.50;55.37;95022.56;4155565;28;19921;-80
2023/08/22 06:04:52;;;;;;;;;;;;;;;25.67;54.96;95027.13;4173911;28;20332;-78
2023/08/22 06:06:54;;;;;;;;;;;;;;;25.81;54.25;95023.03;4181962;28;19960;-79
2023/08/22 06:08:56;;;;;;;;;;;;;;;25.92;54.08;95021.31;4170028;28;19928;-79
2023/08/22 06:11:00;;;;;;;;;;;;;;;26.07;53.72;95018.88;4171629;28;19921;-79
2023/08/22 06:13:02;;;;;;;;;;;;;;;26.22;53.33;95022.78;4140995;28;20052;-79
2023/08/22 06:15:04;;;;;;;;;;;;;;;26.20;53.18;95020.38;4170236;28;19956;-78
2023/08/22 06:17:06;;;;;;;;;;;;;;;26.12;53.22;95018.13;4156293;28;20008;-81
2023/08/22 06:19:07;;;;;;;;;;;;;;;25.99;53.56;95013.91;4172726;28;19921;-79
2023/08/22 06:21:09;;;;;;;;;;;;;;;26.00;53.86;95020.09;4157032;28;19924;-79
2023/08/22 06:23:11;;;;;;;;;;;;;;;26.10;53.82;95020.25;4172161;28;20007;-80
2023/08/22 06:25:12;;;;;;;;;;;;;;;26.23;53.77;95016.38;4176932;28;19921;-81
2023/08/22 06:27:14;;;;;;;;;;;;;;;26.38;53.52;95011.19;4156480;28;20376;-79
2023/08/22 06:29:16;;;;;;;;;;;;;;;26.51;52.87;95016.16;4168777;28;19931;-79
2023/08/22 06:31:17;;;;;;;;;;;;;;;26.66;52.41;95017.44;4176641;28;19947;-78
2023/08/22 06:33:19;;;;;;;;;;;;;;;26.71;51.93;95015.59;4171446;28;19920;-79
2023/08/22 06:35:21;;;;;;;;;;;;;;;26.81;51.80;95016.81;4155173;28;19920;-81
2023/08/22 06:37:22;;;;;;;;;;;;;;;26.71;51.65;95009.44;4176784;28;19952;-82
2023/08/22 06:39:24;;;;;;;;;;;;;;;26.72;51.85;95011.88;4172883;28;20384;-77
2023/08/22 06:41:26;;;;;;;;;;;;;;;26.45;52.93;95009.13;4171743;28;19932;-80
2023/08/22 06:43:28;;;;;;;;;;;;;;;26.18;53.51;95018.97;4168020;28;19921;-79
2023/08/22 06:45:30;;;;;;;;;;;;;;;25.84;54.13;95019.06;4135558;28;20011;-78
2023/08/22 06:47:31;;;;;;;;;;;;;;;25.89;54.21;95021.81;4174556;28;19920;-78
2023/08/22 06:49:33;;;;;;;;;;;;;;;25.88;54.70;95021.03;4167921;28;19921;-79
2023/08/22 06:51:35;;;;;;;;;;;;;;;25.95;54.36;95021.66;4173467;28;19920;-79
2023/08/22 06:53:36;;;;;;;;;;;;;;;25.83;54.53;95020.09;4162136;28;19925;-78
2023/08/22 06:55:38;;;;;;;;;;;;;;;26.00;54.46;95020.09;4157210;28;19924;-79
2023/08/22 06:57:40;;;;;;;;;;;;;;;26.27;53.91;95012.13;4148911;28;20066;-80
2023/08/22 06:59:42;;;;;;;;;;;;;;;26.57;52.87;95010.91;4174572;28;19920;-78
2023/08/22 07:01:44;;;;;;;;;;;;;;;26.86;52.21;95009.59;4168545;28;19924;-79
2023/08/22 07:03:45;;;;;;;;;;;;;;;27.11;51.46;95013.59;4168173;28;19921;-78
2023/08/22 07:05:52;;;;;;;;;;;;;;;27.30;51.21;95012.19;4170722;28;19924;-80
2023/08/22 07:07:54;;;;;;;;;;;;;;;27.42;50.59;95014.69;4152220;28;20011;-79
2023/08/22 07:09:56;;;;;;;;;;;;;;;27.54;49.96;95014.53;4170904;28;19925;-80
2023/08/22 07:11:58;;;;;;;;;;;;;;;27.66;50.28;95012.47;4151321;28;20433;-80
2023/08/22 07:13:59;;;;;;;;;;;;;;;27.73;49.66;95007.66;4174460;28;19998;-78
2023/08/22 07:16:01;;;;;;;;;;;;;;;27.78;49.58;94999.59;4169500;28;20004;-81
2023/08/22 07:18:03;;;;;;;;;;;;;;;27.91;49.60;95000.25;4152983;28;19922;-80
2023/08/22 07:20:06;;;;;;;;;;;;;;;28.03;49.15;95008.94;4171898;28;19948;-79
2023/08/22 07:22:09;;;;;;;;;;;;;;;28.10;48.59;95004.13;4169050;28;19921;-76
2023/08/22 07:24:10;;;;;;;;;;;;;;;28.17;48.62;95004.69;4169618;28;20003;-80
2023/08/22 07:26:12;;;;;;;;;;;;;;;28.28;48.54;95004.75;4157456;28;19932;-80
2023/08/22 07:28:14;;;;;;;;;;;;;;;28.33;48.34;95004.75;4169780;28;19921;-80
2023/08/22 07:30:15;;;;;;;;;;;;;;;28.00;49.26;95003.25;4178942;28;20452;-80
2023/08/22 07:32:20;;;;;;;;;;;;;;;28.03;49.21;95008.94;4184120;28;20004;-81
2023/08/22 07:34:22;;;;;;;;;;;;;;;28.16;48.70;95003.09;4137231;28;20385;-79
2023/08/22 07:36:24;;;;;;;;;;;;;;;28.27;48.74;94998.56;4177567;28;20325;-82
2023/08/22 07:38:26;;;;;;;;;;;;;;;27.85;48.78;94995.88;4172771;28;19976;-80
2023/08/22 07:40:29;;;;;;;;;;;;;;;27.77;49.11;94999.88;4176653;28;20286;-80
2023/08/22 07:42:30;;;;;;;;;;;;;;;27.69;49.67;94993.09;4178439;28;20312;-78
2023/08/22 07:44:32;;;;;;;;;;;;;;;27.81;49.14;94998.25;4179084;28;19920;-75
2023/08/22 07:46:34;;;;;;;;;;;;;;;27.91;48.94;95001.06;4188792;28;19921;-79
2023/08/22 07:48:35;;;;;;;;;;;;;;;28.10;48.77;94997.94;4180224;28;19971;-80
2023/08/22 07:50:37;;;;;;;;;;;;;;;28.09;48.37;94994.44;4178250;28;20222;-80
2023/08/22 07:52:39;;;;;;;;;;;;;;;28.05;48.65;95003.28;4176005;28;19925;-75
2023/08/22 07:54:41;;;;;;;;;;;;;;;27.80;49.16;94993.16;4154916;28;19933;-83
2023/08/22 07:56:44;;;;;;;;;;;;;;;27.63;49.50;94999.50;4192116;28;19959;-75
2023/08/22 07:58:47;;;;;;;;;;;;;;;27.71;49.60;94996.34;4167995;28;20376;-79
2023/08/22 08:00:49;;;;;;;;;;;;;;;27.75;49.68;94996.63;4190091;28;19920;-77
2023/08/22 08:02:51;;;;;;;;;;;;;;;27.70;49.32;94996.59;4181029;28;19944;-78
2023/08/22 08:04:52;;;;;;;;;;;;;;;27.96;48.92;94997.56;4141039;28;19921;-76
2023/08/22 08:06:54;;;;;;;;;;;;;;;28.14;48.70;94994.44;4184080;28;19921;-80
2023/08/22 08:08:56;;;;;;;;;;;;;;;28.24;48.03;94995.56;4192374;28;20002;-77
2023/08/22 08:10:57;;;;;;;;;;;;;;;28.33;47.17;94992.13;4169037;28;19925;-78
2023/08/22 08:12:59;;;;;;;;;;;;;;;28.33;46.61;94988.59;4191480;28;19920;-79
2023/08/22 08:15:00;;;;;;;;;;;;;;;28.11;47.69;94986.06;4190094;28;19920;-80
2023/08/22 08:17:02;;;;;;;;;;;;;;;28.22;47.41;94989.63;4178672;28;19956;-78
2023/08/22 08:19:04;;;;;;;;;;;;;;;28.25;46.87;94986.44;4192488;28;19917;-78
2023/08/22 08:21:06;;;;;;;;;;;;;;;28.04;47.16;94990.91;4188075;28;19931;-80
2023/08/22 08:23:07;;;;;;;;;;;;;;;28.14;46.84;94994.44;4159440;28;19930;-79
2023/08/22 08:25:09;;;;;;;;;;;;;;;28.33;46.89;94985.91;4188709;28;19929;-78
2023/08/22 08:27:11;;;;;;;;;;;;;;;28.69;46.11;94983.34;4177228;28;19928;-78
2023/08/22 08:29:12;;;;;;;;;;;;;;;28.98;45.35;94979.09;4181330;28;20023;-80
2023/08/22 08:31:14;;;;;;;;;;;;;;;28.72;45.08;94982.84;4181980;28;20120;-79
2023/08/22 08:33:15;;;;;;;;;;;;;;;28.55;45.11;94989.25;4171612;28;20222;-81
2023/08/22 08:35:17;;;;;;;;;;;;;;;28.27;45.96;94984.28;4177127;28;20031;-78
2023/08/22 08:37:19;;;;;;;;;;;;;;;28.56;45.51;94988.16;4180292;28;20006;-80
2023/08/22 08:39:21;;;;;;;;;;;;;;;28.66;45.38;94997.38;4180363;28;20379;-81
2023/08/22 08:41:22;;;;;;;;;;;;;;;28.89;45.16;94982.56;4177565;28;19935;-81
2023/08/22 08:43:24;;;;;;;;;;;;;;;29.19;44.83;94989.94;4145565;28;19937;-80
2023/08/22 08:45:27;;;;;;;;;;;;;;;29.21;44.70;94982.38;4168236;28;19921;-80
2023/08/22 08:47:30;;;;;;;;;;;;;;;29.36;43.85;94984.25;4163246;28;20094;-79
2023/08/22 08:49:32;;;;;;;;;;;;;;;29.56;43.64;94989.66;4180501;28;19928;-80
2023/08/22 08:51:37;;;;;;;;;;;;;;;29.80;43.30;94981.81;4177493;28;19932;-80
2023/08/22 08:53:39;;;;;;;;;;;;;;;30.05;42.27;94979.31;4152068;28;19932;-80
2023/08/22 08:55:41;;;;;;;;;;;;;;;30.06;41.87;94976.34;4178285;28;20024;-81
2023/08/22 08:57:42;;;;;;;;;;;;;;;30.00;42.34;94977.44;4176991;28;20356;-82
2023/08/22 08:59:44;;;;;;;;;;;;;;;30.02;42.32;94972.56;4170985;28;20345;-83
2023/08/22 09:01:46;;;;;;;;;;;;;;;29.89;41.80;94975.84;4170839;28;19931;-80
2023/08/22 09:03:48;;;;;;;;;;;;;;;29.98;41.16;94972.31;4180776;28;20364;-80
2023/08/22 09:05:50;;;;;;;;;;;;;;;30.12;40.72;94972.53;4167222;28;19928;-78
2023/08/22 09:07:53;;;;;;;;;;;;;;;30.26;40.14;94977.34;4171775;28;20015;-79
2023/08/22 09:09:55;;;;;;;;;;;;;;;30.55;40.21;94974.84;4177744;28;20066;-80
2023/08/22 09:11:57;;;;;;;;;;;;;;;30.65;39.92;94969.34;4165110;28;19937;-82
2023/08/22 09:13:59;;;;;;;;;;;;;;;30.66;39.51;94970.19;4164800;28;20346;-77
2023/08/22 09:16:01;;;;;;;;;;;;;;;30.84;39.30;94966.81;4166228;28;20221;-80
2023/08/22 09:18:02;;;;;;;;;;;;;;;30.57;39.31;94967.25;4168851;28;19925;-82
2023/08/22 09:20:09;;;;;;;;;;;;;;;30.53;39.33;94961.59;4161282;28;19921;-79
2023/08/22 09:22:14;;;;;;;;;;;;;;;30.38;38.84;94961.66;4176009;28;20351;-80
2023/08/22 09:24:17;;;;;;;;;;;;;;;30.47;38.87;94957.28;4170168;28;19929;-77
2023/08/22 09:26:20;;;;;;;;;;;;;;;30.62;37.57;94951.78;4157876;28;19921;-81
2023/08/22 09:28:22;;;;;;;;;;;;;;;30.94;36.70;94955.97;4175969;28;19973;-79
2023/08/22 09:30:24;;;;;;;;;;;;;;;31.24;35.92;94951.41;4176338;28;19921;-80
2023/08/22 09:32:26;;;;;;;;;;;;;;;31.49;35.30;94945.00;4180812;28;19974;-83
2023/08/22 09:34:27;;;;;;;;;;;;;;;31.77;35.48;94950.66;4168906;28;20051;-80
2023/08/22 09:36:29;;;;;;;;;;;;;;;31.96;34.11;94950.75;4175422;28;20013;-80
2023/08/22 09:38:31;;;;;;;;;;;;;;;32.15;34.11;94946.22;4171203;28;19921;-79
2023/08/22 09:40:33;;;;;;;;;;;;;;;32.33;34.15;94941.94;4178079;28;20333;-79
2023/08/22 09:42:38;;;;;;;;;;;;;;;32.48;33.63;94946.34;4179379;28;19960;-80
2023/08/22 09:44:39;;;;;;;;;;;;;;;32.54;33.30;94938.97;4177050;28;19939;-79
2023/08/22 09:46:41;;;;;;;;;;;;;;;32.68;32.73;94939.06;4161449;28;19948;-79
2023/08/22 09:48:43;;;;;;;;;;;;;;;32.68;31.98;94936.34;4178933;28;20252;-80
2023/08/22 09:50:44;;;;;;;;;;;;;;;32.59;32.91;94934.31;4178967;28;19921;-80
2023/08/22 09:52:47;;;;;;;;;;;;;;;32.68;32.36;94922.81;4151466;28;19922;-79
2023/08/22 09:54:49;;;;;;;;;;;;;;;32.76;32.14;94928.38;4142257;28;19925;-81
2023/08/22 09:56:50;;;;;;;;;;;;;;;32.89;32.04;94926.81;4158323;28;19957;-81
2023/08/22 09:58:52;;;;;;;;;;;;;;;33.04;31.29;94923.03;4146462;28;20023;-81
2023/08/22 10:00:55;;;;;;;;;;;;;;;33.11;30.71;94917.28;4165024;28;20047;-80
2023/08/22 10:02:56;;;;;;;;;;;;;;;33.15;30.02;94912.84;4152493;28;20067;-76
2023/08/22 10:05:00;;;;;;;;;;;;;;;33.17;29.85;94921.50;4150594;28;20297;-78
2023/08/22 10:07:02;;;;;;;;;;;;;;;33.23;30.10;94915.72;4151337;28;19943;-81
2023/08/22 10:09:13;;;;;;;;;;;;;;;33.28;29.92;94917.53;4177789;28;19921;-81
2023/08/22 10:11:15;;;;;;;;;;;;;;;33.14;30.11;94906.63;4178118;28;19928;-79
2023/08/22 10:13:16;;;;;;;;;;;;;;;32.89;30.23;94905.13;4151003;28;19920;-78
2023/08/22 10:15:18;;;;;;;;;;;;;;;32.92;30.23;94909.13;4160722;28;19929;-80
2023/08/22 10:17:20;;;;;;;;;;;;;;;32.39;31.31;94915.56;4179001;28;19920;-77
2023/08/22 10:19:22;;;;;;;;;;;;;;;32.49;31.19;94910.00;4144415;28;19957;-77
2023/08/22 10:21:24;;;;;;;;;;;;;;;32.69;31.12;94910.84;4154842;28;20357;-82
2023/08/22 10:23:44;;;;;;;;;;;;;;;32.52;31.00;94900.47;4160184;28;19944;-80
2023/08/22 10:25:47;;;;;;;;;;;;;;;31.87;31.13;94901.00;4173032;28;19920;-77
2023/08/22 10:27:48;;;;;;;;;;;;;;;31.80;31.87;94894.03;4171179;28;20007;-80
2023/08/22 10:30:10;;;;;;;;;;;;;;;31.67;32.19;94892.00;4164016;28;19975;-80
2023/08/22 10:32:12;;;;;;;;;;;;;;;31.88;32.31;94891.78;4155103;28;19996;-79
2023/08/22 10:34:14;;;;;;;;;;;;;;;32.13;31.95;94896.09;4177418;28;19920;-78
2023/08/22 10:36:16;;;;;;;;;;;;;;;32.41;31.26;94887.03;4159013;28;19936;-79
2023/08/22 10:38:20;;;;;;;;;;;;;;;32.63;30.88;94880.25;4178867;28;19920;-82